sensor_id;sensor_type;location;lat;lon;timestamp;temperature;humidity
11091;DHT22;5599;52.210;21.046;2024-01-10T00:01:38;-5.70;99.90
11091;DHT22;5599;52.210;21.046;2024-01-10T00:04:08;-5.80;99.90
11091;DHT22;5599;52.210;21.046;2024-01-10T00:06:37;-5.80;1.00
11091;DHT22;5599;52.210;21.046;2024-01-10T00:09:06;-5.70;1.00
11091;DHT22;5599;52.210;21.046;2024-01-10T00:11:37;-5.70;99.90
11091;DHT22;5599;52.210;21.046;2024-01-10T00:14:06;-5.80;1.00
11091;DHT22;5599;52.210;21.046;2024-01-10T00:16:35;-5.80;1.00
11091;DHT22;5599;52.210;21.046;2024-01-10T00:19:04;-5.80;1.00
11091;DHT22;5599;52.210;21.046;2024-01-10T00:21:33;-5.80;1.00
11091;DHT22;5599;52.210;21.046;2024-01-10T00:24:04;-5.80;1.00
11091;DHT22;5599;52.210;21.046;2024-01-10T00:26:33;-5.70;99.90
11091;DHT22;5599;52.210;21.046;2024-01-10T00:29:03;-5.70;1.00
11091;DHT22;5599;52.210;21.046;2024-01-10T00:31:33;-5.70;99.90
11091;DHT22;5599;52.210;21.046;2024-01-10T00:34:02;-5.80;99.90
11091;DHT22;5599;52.210;21.046;2024-01-10T00:36:31;-5.80;1.00
11091;DHT22;5599;52.210;21.046;2024-01-10T00:39:00;-5.80;99.90
11091;DHT22;5599;52.210;21.046;2024-01-10T00:41:29;-5.80;99.90
11091;DHT22;5599;52.210;21.046;2024-01-10T00:43:58;-5.80;99.90
11091;DHT22;5599;52.210;21.046;2024-01-10T00:46:29;-5.80;99.90
11091;DHT22;5599;52.210;21.046;2024-01-10T00:48:58;-5.80;99.90
11091;DHT22;5599;52.210;21.046;2024-01-10T00:51:28;-5.80;99.90
11091;DHT22;5599;52.210;21.046;2024-01-10T00:53:59;-5.80;99.90
11091;DHT22;5599;52.210;21.046;2024-01-10T00:56:30;-5.70;99.90
11091;DHT22;5599;52.210;21.046;2024-01-10T00:59:00;-5.70;99.90
11091;DHT22;5599;52.210;21.046;2024-01-10T01:01:33;-5.70;99.90
11091;DHT22;5599;52.210;21.046;2024-01-10T01:04:04;-5.70;99.90
11091;DHT22;5599;52.210;21.046;2024-01-10T01:06:35;-5.70;99.90
11091;DHT22;5599;52.210;21.046;2024-01-10T01:09:06;-5.70;99.90
11091;DHT22;5599;52.210;21.046;2024-01-10T01:11:37;-5.70;99.90
11091;DHT22;5599;52.210;21.046;2024-01-10T01:14:07;-5.70;99.90
11091;DHT22;5599;52.210;21.046;2024-01-10T01:16:42;-5.70;99.90
11091;DHT22;5599;52.210;21.046;2024-01-10T01:19:12;-5.70;99.90
11091;DHT22;5599;52.210;21.046;2024-01-10T01:21:43;-5.80;99.90
11091;DHT22;5599;52.210;21.046;2024-01-10T01:24:13;-5.80;99.90
11091;DHT22;5599;52.210;21.046;2024-01-10T01:26:43;-5.70;99.90
11091;DHT22;5599;52.210;21.046;2024-01-10T01:29:12;-5.80;99.90
11091;DHT22;5599;52.210;21.046;2024-01-10T01:31:43;-5.70;99.90
11091;DHT22;5599;52.210;21.046;2024-01-10T01:34:13;-5.70;99.90
11091;DHT22;5599;52.210;21.046;2024-01-10T01:36:43;-5.70;99.90
11091;DHT22;5599;52.210;21.046;2024-01-10T01:39:14;-5.80;99.90
11091;DHT22;5599;52.210;21.046;2024-01-10T01:41:45;-5.80;99.90
11091;DHT22;5599;52.210;21.046;2024-01-10T01:44:16;-5.90;1.00
11091;DHT22;5599;52.210;21.046;2024-01-10T01:46:49;-5.90;1.00
11091;DHT22;5599;52.210;21.046;2024-01-10T01:49:20;-5.90;1.00
11091;DHT22;5599;52.210;21.046;2024-01-10T01:51:50;-5.90;1.00
11091;DHT22;5599;52.210;21.046;2024-01-10T01:54:21;-5.90;1.00
11091;DHT22;5599;52.210;21.046;2024-01-10T01:56:53;-6.00;1.00
11091;DHT22;5599;52.210;21.046;2024-01-10T01:59:25;-6.00;1.00
11091;DHT22;5599;52.210;21.046;2024-01-10T02:01:58;-5.90;1.00
11091;DHT22;5599;52.210;21.046;2024-01-10T02:04:31;-6.00;1.00
11091;DHT22;5599;52.210;21.046;2024-01-10T02:07:03;-6.00;1.00
11091;DHT22;5599;52.210;21.046;2024-01-10T02:09:34;-6.00;1.00
11091;DHT22;5599;52.210;21.046;2024-01-10T02:12:05;-6.00;1.00
11091;DHT22;5599;52.210;21.046;2024-01-10T02:14:36;-6.00;1.00
11091;DHT22;5599;52.210;21.046;2024-01-10T02:17:06;-6.00;1.00
11091;DHT22;5599;52.210;21.046;2024-01-10T02:19:36;-6.00;1.00
11091;DHT22;5599;52.210;21.046;2024-01-10T02:22:05;-6.00;1.00
11091;DHT22;5599;52.210;21.046;2024-01-10T02:24:34;-6.00;1.00
11091;DHT22;5599;52.210;21.046;2024-01-10T02:27:05;-6.00;1.00
11091;DHT22;5599;52.210;21.046;2024-01-10T02:29:34;-6.00;1.00
11091;DHT22;5599;52.210;21.046;2024-01-10T02:32:05;-6.00;1.00
11091;DHT22;5599;52.210;21.046;2024-01-10T02:34:34;-5.90;1.00
11091;DHT22;5599;52.210;21.046;2024-01-10T02:37:04;-5.90;1.00
11091;DHT22;5599;52.210;21.046;2024-01-10T02:39:33;-5.90;1.00
11091;DHT22;5599;52.210;21.046;2024-01-10T02:42:03;-6.10;1.00
11091;DHT22;5599;52.210;21.046;2024-01-10T02:44:33;-6.10;1.00
11091;DHT22;5599;52.210;21.046;2024-01-10T02:47:02;-6.10;1.00
11091;DHT22;5599;52.210;21.046;2024-01-10T02:49:31;-6.00;1.00
11091;DHT22;5599;52.210;21.046;2024-01-10T02:52:01;-6.00;1.00
11091;DHT22;5599;52.210;21.046;2024-01-10T02:54:30;-6.10;1.00
11091;DHT22;5599;52.210;21.046;2024-01-10T02:57:00;-6.10;1.00
11091;DHT22;5599;52.210;21.046;2024-01-10T02:59:30;-6.10;1.00
11091;DHT22;5599;52.210;21.046;2024-01-10T03:01:59;-6.10;1.00
11091;DHT22;5599;52.210;21.046;2024-01-10T03:04:28;-6.10;1.00
11091;DHT22;5599;52.210;21.046;2024-01-10T03:06:58;-6.00;1.00
11091;DHT22;5599;52.210;21.046;2024-01-10T03:09:27;-6.00;1.00
11091;DHT22;5599;52.210;21.046;2024-01-10T03:11:56;-6.00;1.00
11091;DHT22;5599;52.210;21.046;2024-01-10T03:14:25;-6.10;1.00
11091;DHT22;5599;52.210;21.046;2024-01-10T03:16:55;-6.20;1.00
11091;DHT22;5599;52.210;21.046;2024-01-10T03:19:24;-6.10;1.00
11091;DHT22;5599;52.210;21.046;2024-01-10T03:21:53;-6.10;1.00
11091;DHT22;5599;52.210;21.046;2024-01-10T03:24:23;-6.10;1.00
11091;DHT22;5599;52.210;21.046;2024-01-10T03:26:54;-6.10;1.00
11091;DHT22;5599;52.210;21.046;2024-01-10T03:29:23;-6.20;1.00
11091;DHT22;5599;52.210;21.046;2024-01-10T03:31:52;-6.10;2.50
11091;DHT22;5599;52.210;21.046;2024-01-10T03:34:23;-6.10;9.50
11091;DHT22;5599;52.210;21.046;2024-01-10T03:36:52;-6.10;1.00
11091;DHT22;5599;52.210;21.046;2024-01-10T03:39:21;-6.20;1.00
11091;DHT22;5599;52.210;21.046;2024-01-10T03:41:50;-6.20;49.70
11091;DHT22;5599;52.210;21.046;2024-01-10T03:44:19;-6.20;48.80
11091;DHT22;5599;52.210;21.046;2024-01-10T03:46:48;-6.20;99.90
11091;DHT22;5599;52.210;21.046;2024-01-10T03:49:17;-6.10;46.60
11091;DHT22;5599;52.210;21.046;2024-01-10T03:51:47;-6.20;1.00
11091;DHT22;5599;52.210;21.046;2024-01-10T03:54:16;-6.20;1.00
11091;DHT22;5599;52.210;21.046;2024-01-10T03:56:45;-6.20;84.50
11091;DHT22;5599;52.210;21.046;2024-01-10T03:59:14;-6.20;55.30
11091;DHT22;5599;52.210;21.046;2024-01-10T04:01:44;-6.20;98.30
11091;DHT22;5599;52.210;21.046;2024-01-10T04:04:13;-6.20;47.90
11091;DHT22;5599;52.210;21.046;2024-01-10T04:06:42;-6.30;97.10
11091;DHT22;5599;52.210;21.046;2024-01-10T04:09:12;-6.30;99.90
11091;DHT22;5599;52.210;21.046;2024-01-10T04:11:41;-6.30;99.90
11091;DHT22;5599;52.210;21.046;2024-01-10T04:14:10;-6.30;99.90
11091;DHT22;5599;52.210;21.046;2024-01-10T04:16:40;-6.30;99.90
11091;DHT22;5599;52.210;21.046;2024-01-10T04:19:09;-6.30;99.90
11091;DHT22;5599;52.210;21.046;2024-01-10T04:21:38;-6.30;99.90
11091;DHT22;5599;52.210;21.046;2024-01-10T04:24:07;-6.30;99.90
11091;DHT22;5599;52.210;21.046;2024-01-10T04:26:37;-6.30;99.90
11091;DHT22;5599;52.210;21.046;2024-01-10T04:29:07;-6.30;99.90
11091;DHT22;5599;52.210;21.046;2024-01-10T04:31:36;-6.30;99.90
11091;DHT22;5599;52.210;21.046;2024-01-10T04:34:05;-6.40;99.90
11091;DHT22;5599;52.210;21.046;2024-01-10T04:36:34;-6.40;99.90
11091;DHT22;5599;52.210;21.046;2024-01-10T04:39:03;-6.40;99.90
11091;DHT22;5599;52.210;21.046;2024-01-10T04:41:32;-6.30;99.90
11091;DHT22;5599;52.210;21.046;2024-01-10T04:44:03;-6.40;99.90
11091;DHT22;5599;52.210;21.046;2024-01-10T04:46:32;-6.40;99.90
11091;DHT22;5599;52.210;21.046;2024-01-10T04:49:02;-6.40;99.90
11091;DHT22;5599;52.210;21.046;2024-01-10T04:51:31;-6.40;99.90
11091;DHT22;5599;52.210;21.046;2024-01-10T04:54:00;-6.30;99.90
11091;DHT22;5599;52.210;21.046;2024-01-10T04:56:29;-6.40;99.90
11091;DHT22;5599;52.210;21.046;2024-01-10T04:58:59;-6.40;99.90
11091;DHT22;5599;52.210;21.046;2024-01-10T05:01:30;-6.40;99.90
11091;DHT22;5599;52.210;21.046;2024-01-10T05:03:59;-6.50;99.90
11091;DHT22;5599;52.210;21.046;2024-01-10T05:06:28;-6.50;1.00
11091;DHT22;5599;52.210;21.046;2024-01-10T05:08:57;-6.50;1.00
11091;DHT22;5599;52.210;21.046;2024-01-10T05:11:26;-6.40;1.00
11091;DHT22;5599;52.210;21.046;2024-01-10T05:13:55;-6.40;1.00
11091;DHT22;5599;52.210;21.046;2024-01-10T05:16:24;-6.40;1.00
11091;DHT22;5599;52.210;21.046;2024-01-10T05:18:55;-6.40;1.00
11091;DHT22;5599;52.210;21.046;2024-01-10T05:21:24;-6.30;1.00
11091;DHT22;5599;52.210;21.046;2024-01-10T05:23:54;-6.40;1.00
11091;DHT22;5599;52.210;21.046;2024-01-10T05:26:23;-6.50;1.00
11091;DHT22;5599;52.210;21.046;2024-01-10T05:28:52;-6.50;1.00
11091;DHT22;5599;52.210;21.046;2024-01-10T05:31:21;-6.50;1.00
11091;DHT22;5599;52.210;21.046;2024-01-10T05:33:50;-6.50;1.00
11091;DHT22;5599;52.210;21.046;2024-01-10T05:36:23;-6.50;1.00
11091;DHT22;5599;52.210;21.046;2024-01-10T05:38:53;-6.60;1.00
11091;DHT22;5599;52.210;21.046;2024-01-10T05:41:22;-6.50;1.00
11091;DHT22;5599;52.210;21.046;2024-01-10T05:43:52;-6.50;1.00
11091;DHT22;5599;52.210;21.046;2024-01-10T05:46:21;-6.60;1.00
11091;DHT22;5599;52.210;21.046;2024-01-10T05:48:51;-6.60;1.00
11091;DHT22;5599;52.210;21.046;2024-01-10T05:51:20;-6.60;1.00
11091;DHT22;5599;52.210;21.046;2024-01-10T05:53:50;-6.60;99.90
11091;DHT22;5599;52.210;21.046;2024-01-10T05:56:19;-6.60;99.90
11091;DHT22;5599;52.210;21.046;2024-01-10T05:58:48;-6.60;99.90
11091;DHT22;5599;52.210;21.046;2024-01-10T06:01:18;-6.60;99.90
11091;DHT22;5599;52.210;21.046;2024-01-10T06:03:48;-6.60;99.90
11091;DHT22;5599;52.210;21.046;2024-01-10T06:06:17;-6.70;99.90
11091;DHT22;5599;52.210;21.046;2024-01-10T06:08:46;-6.70;99.90
11091;DHT22;5599;52.210;21.046;2024-01-10T06:11:17;-6.70;99.90
11091;DHT22;5599;52.210;21.046;2024-01-10T06:13:46;-6.70;99.90
11091;DHT22;5599;52.210;21.046;2024-01-10T06:16:23;-6.80;1.00
11091;DHT22;5599;52.210;21.046;2024-01-10T06:18:53;-6.70;1.00
11091;DHT22;5599;52.210;21.046;2024-01-10T06:21:22;-6.70;1.00
11091;DHT22;5599;52.210;21.046;2024-01-10T06:23:51;-6.80;1.00
11091;DHT22;5599;52.210;21.046;2024-01-10T06:26:22;-6.80;1.00
11091;DHT22;5599;52.210;21.046;2024-01-10T06:28:51;-6.80;1.00
11091;DHT22;5599;52.210;21.046;2024-01-10T06:31:20;-6.80;1.00
11091;DHT22;5599;52.210;21.046;2024-01-10T06:33:49;-6.70;1.00
11091;DHT22;5599;52.210;21.046;2024-01-10T06:36:19;-6.80;1.00
11091;DHT22;5599;52.210;21.046;2024-01-10T06:38:47;-6.80;1.00
11091;DHT22;5599;52.210;21.046;2024-01-10T06:41:17;-6.70;1.00
11091;DHT22;5599;52.210;21.046;2024-01-10T06:43:47;-6.80;1.00
11091;DHT22;5599;52.210;21.046;2024-01-10T06:46:16;-6.80;1.00
11091;DHT22;5599;52.210;21.046;2024-01-10T06:48:46;-6.80;21.20
11091;DHT22;5599;52.210;21.046;2024-01-10T06:51:16;-6.70;99.90
11091;DHT22;5599;52.210;21.046;2024-01-10T06:53:46;-6.70;99.90
11091;DHT22;5599;52.210;21.046;2024-01-10T06:56:15;-6.60;41.40
11091;DHT22;5599;52.210;21.046;2024-01-10T06:58:44;-6.70;1.00
11091;DHT22;5599;52.210;21.046;2024-01-10T07:01:15;-6.70;87.70
11091;DHT22;5599;52.210;21.046;2024-01-10T07:03:44;-6.70;78.70
11091;DHT22;5599;52.210;21.046;2024-01-10T07:06:14;-6.60;99.90
11091;DHT22;5599;52.210;21.046;2024-01-10T07:08:43;-6.50;55.70
11091;DHT22;5599;52.210;21.046;2024-01-10T07:11:13;-6.60;48.80
11091;DHT22;5599;52.210;21.046;2024-01-10T07:13:42;-6.60;2.70
11091;DHT22;5599;52.210;21.046;2024-01-10T07:16:11;-6.50;1.00
11091;DHT22;5599;52.210;21.046;2024-01-10T07:18:44;-6.50;1.00
11091;DHT22;5599;52.210;21.046;2024-01-10T07:21:15;-6.50;1.00
11091;DHT22;5599;52.210;21.046;2024-01-10T07:23:45;-6.40;1.00
11091;DHT22;5599;52.210;21.046;2024-01-10T07:26:14;-6.40;1.00
11091;DHT22;5599;52.210;21.046;2024-01-10T07:28:44;-6.40;1.00
11091;DHT22;5599;52.210;21.046;2024-01-10T07:31:13;-6.30;1.00
11091;DHT22;5599;52.210;21.046;2024-01-10T07:33:45;-6.30;1.00
11091;DHT22;5599;52.210;21.046;2024-01-10T07:36:14;-6.20;1.00
11091;DHT22;5599;52.210;21.046;2024-01-10T07:38:44;-6.10;1.00
11091;DHT22;5599;52.210;21.046;2024-01-10T07:41:13;-6.10;99.90
11091;DHT22;5599;52.210;21.046;2024-01-10T07:43:42;-6.00;99.90
11091;DHT22;5599;52.210;21.046;2024-01-10T07:46:12;-6.00;99.90
11091;DHT22;5599;52.210;21.046;2024-01-10T07:48:44;-5.80;99.90
11091;DHT22;5599;52.210;21.046;2024-01-10T07:51:15;-5.60;99.90
11091;DHT22;5599;52.210;21.046;2024-01-10T07:53:47;-5.40;99.90
11091;DHT22;5599;52.210;21.046;2024-01-10T07:56:16;-5.10;1.00
11091;DHT22;5599;52.210;21.046;2024-01-10T07:58:47;-4.80;1.00
11091;DHT22;5599;52.210;21.046;2024-01-10T08:01:17;-4.50;1.00
11091;DHT22;5599;52.210;21.046;2024-01-10T08:03:48;-4.20;99.90
11091;DHT22;5599;52.210;21.046;2024-01-10T08:06:17;-3.80;99.90
11091;DHT22;5599;52.210;21.046;2024-01-10T08:08:58;-3.50;99.90
11091;DHT22;5599;52.210;21.046;2024-01-10T08:11:27;-3.30;21.10
11091;DHT22;5599;52.210;21.046;2024-01-10T08:13:56;-3.10;1.00
11091;DHT22;5599;52.210;21.046;2024-01-10T08:16:26;-3.00;1.00
11091;DHT22;5599;52.210;21.046;2024-01-10T08:18:56;-3.00;1.00
11091;DHT22;5599;52.210;21.046;2024-01-10T08:21:27;-2.80;1.00
11091;DHT22;5599;52.210;21.046;2024-01-10T08:23:56;-2.40;1.00
11091;DHT22;5599;52.210;21.046;2024-01-10T08:26:27;-2.20;1.00
11091;DHT22;5599;52.210;21.046;2024-01-10T08:28:56;-2.20;1.00
11091;DHT22;5599;52.210;21.046;2024-01-10T08:31:25;-2.30;1.00
11091;DHT22;5599;52.210;21.046;2024-01-10T08:33:56;-2.20;1.00
11091;DHT22;5599;52.210;21.046;2024-01-10T08:36:25;-2.00;1.00
11091;DHT22;5599;52.210;21.046;2024-01-10T08:38:54;-1.70;1.00
11091;DHT22;5599;52.210;21.046;2024-01-10T08:41:24;-1.60;1.00
11091;DHT22;5599;52.210;21.046;2024-01-10T08:43:53;-1.50;1.00
11091;DHT22;5599;52.210;21.046;2024-01-10T08:46:22;-1.30;1.00
11091;DHT22;5599;52.210;21.046;2024-01-10T08:48:52;-1.10;99.90
11091;DHT22;5599;52.210;21.046;2024-01-10T08:51:23;-1.00;1.00
11091;DHT22;5599;52.210;21.046;2024-01-10T08:53:52;-1.10;1.00
11091;DHT22;5599;52.210;21.046;2024-01-10T08:56:21;-1.20;1.00
11091;DHT22;5599;52.210;21.046;2024-01-10T08:58:51;-1.20;1.00
11091;DHT22;5599;52.210;21.046;2024-01-10T09:01:21;-1.20;1.00
11091;DHT22;5599;52.210;21.046;2024-01-10T09:03:50;-0.90;1.00
11091;DHT22;5599;52.210;21.046;2024-01-10T09:06:19;-0.80;1.00
11091;DHT22;5599;52.210;21.046;2024-01-10T09:08:51;-0.60;1.00
11091;DHT22;5599;52.210;21.046;2024-01-10T09:11:20;-0.30;1.00
11091;DHT22;5599;52.210;21.046;2024-01-10T09:13:50;-0.10;99.90
11091;DHT22;5599;52.210;21.046;2024-01-10T09:16:19;-0.10;99.90
11091;DHT22;5599;52.210;21.046;2024-01-10T09:18:48;0.00;99.90
11091;DHT22;5599;52.210;21.046;2024-01-10T09:21:21;0.10;1.00
11091;DHT22;5599;52.210;21.046;2024-01-10T09:23:52;0.20;99.90
11091;DHT22;5599;52.210;21.046;2024-01-10T09:26:21;0.30;99.90
11091;DHT22;5599;52.210;21.046;2024-01-10T09:28:50;0.50;99.90
11091;DHT22;5599;52.210;21.046;2024-01-10T09:31:20;0.60;99.90
11091;DHT22;5599;52.210;21.046;2024-01-10T09:33:49;0.70;99.90
11091;DHT22;5599;52.210;21.046;2024-01-10T09:36:19;0.70;99.90
11091;DHT22;5599;52.210;21.046;2024-01-10T09:38:48;0.60;99.90
11091;DHT22;5599;52.210;21.046;2024-01-10T09:41:18;0.60;99.90
11091;DHT22;5599;52.210;21.046;2024-01-10T09:43:48;0.60;99.90
11091;DHT22;5599;52.210;21.046;2024-01-10T09:46:18;0.50;1.00
11091;DHT22;5599;52.210;21.046;2024-01-10T09:48:47;0.20;99.90
11091;DHT22;5599;52.210;21.046;2024-01-10T09:51:22;-0.10;1.00
11091;DHT22;5599;52.210;21.046;2024-01-10T09:53:53;-0.30;1.00
11091;DHT22;5599;52.210;21.046;2024-01-10T09:56:24;-0.40;1.00
11091;DHT22;5599;52.210;21.046;2024-01-10T09:58:55;-0.30;99.90
11091;DHT22;5599;52.210;21.046;2024-01-10T10:01:26;-0.40;1.00
11091;DHT22;5599;52.210;21.046;2024-01-10T10:03:56;-0.20;99.90
11091;DHT22;5599;52.210;21.046;2024-01-10T10:06:26;0.00;99.90
11091;DHT22;5599;52.210;21.046;2024-01-10T10:08:55;0.10;1.00
11091;DHT22;5599;52.210;21.046;2024-01-10T10:11:26;0.10;1.00
11091;DHT22;5599;52.210;21.046;2024-01-10T10:13:56;0.00;1.00
11091;DHT22;5599;52.210;21.046;2024-01-10T10:16:25;-0.10;99.90
11091;DHT22;5599;52.210;21.046;2024-01-10T10:18:55;-0.30;99.90
11091;DHT22;5599;52.210;21.046;2024-01-10T10:21:26;-0.50;99.90
11091;DHT22;5599;52.210;21.046;2024-01-10T10:23:59;-0.60;1.00
11091;DHT22;5599;52.210;21.046;2024-01-10T10:26:32;-0.50;1.00
11091;DHT22;5599;52.210;21.046;2024-01-10T10:29:02;-0.50;1.00
11091;DHT22;5599;52.210;21.046;2024-01-10T10:31:33;-0.50;99.90
11091;DHT22;5599;52.210;21.046;2024-01-10T10:34:02;-0.50;99.90
11091;DHT22;5599;52.210;21.046;2024-01-10T10:36:54;-0.50;1.00
11091;DHT22;5599;52.210;21.046;2024-01-10T10:39:25;-0.70;1.00
11091;DHT22;5599;52.210;21.046;2024-01-10T10:41:56;-0.70;1.00
11091;DHT22;5599;52.210;21.046;2024-01-10T10:44:29;-0.90;1.00
11091;DHT22;5599;52.210;21.046;2024-01-10T10:47:04;-1.10;1.00
11091;DHT22;5599;52.210;21.046;2024-01-10T10:49:45;-1.10;1.00
11091;DHT22;5599;52.210;21.046;2024-01-10T10:52:16;-1.10;1.00
11091;DHT22;5599;52.210;21.046;2024-01-10T10:54:48;-1.10;1.00
11091;DHT22;5599;52.210;21.046;2024-01-10T10:57:19;-1.20;1.00
11091;DHT22;5599;52.210;21.046;2024-01-10T10:59:49;-1.10;1.00
11091;DHT22;5599;52.210;21.046;2024-01-10T11:02:21;-1.20;1.00
11091;DHT22;5599;52.210;21.046;2024-01-10T11:04:58;-1.20;1.00
11091;DHT22;5599;52.210;21.046;2024-01-10T11:07:29;-1.20;1.00
11091;DHT22;5599;52.210;21.046;2024-01-10T11:09:58;-1.10;1.00
11091;DHT22;5599;52.210;21.046;2024-01-10T11:12:54;-1.20;1.00
11091;DHT22;5599;52.210;21.046;2024-01-10T11:15:42;-1.20;1.00
11091;DHT22;5599;52.210;21.046;2024-01-10T11:18:29;-1.10;1.00
11091;DHT22;5599;52.210;21.046;2024-01-10T11:21:14;-1.10;1.00
11091;DHT22;5599;52.210;21.046;2024-01-10T11:23:49;-1.10;1.00
11091;DHT22;5599;52.210;21.046;2024-01-10T11:26:20;-1.10;1.00
11091;DHT22;5599;52.210;21.046;2024-01-10T11:28:51;-1.40;1.00
11091;DHT22;5599;52.210;21.046;2024-01-10T11:31:28;-1.40;1.00
11091;DHT22;5599;52.210;21.046;2024-01-10T11:33:58;-1.30;1.00
11091;DHT22;5599;52.210;21.046;2024-01-10T11:36:28;-1.20;1.00
11091;DHT22;5599;52.210;21.046;2024-01-10T11:38:58;-1.10;1.00
11091;DHT22;5599;52.210;21.046;2024-01-10T11:41:31;-1.10;1.00
11091;DHT22;5599;52.210;21.046;2024-01-10T11:44:26;-1.00;1.00
11091;DHT22;5599;52.210;21.046;2024-01-10T11:46:57;-1.10;7.70
11091;DHT22;5599;52.210;21.046;2024-01-10T11:49:27;-1.10;1.00
11091;DHT22;5599;52.210;21.046;2024-01-10T11:51:57;-1.20;1.00
11091;DHT22;5599;52.210;21.046;2024-01-10T11:54:44;-1.20;21.70
11091;DHT22;5599;52.210;21.046;2024-01-10T11:57:18;-1.30;79.70
11091;DHT22;5599;52.210;21.046;2024-01-10T11:59:50;-1.30;84.60
11091;DHT22;5599;52.210;21.046;2024-01-10T12:02:21;-1.30;99.90
11091;DHT22;5599;52.210;21.046;2024-01-10T12:04:52;-1.20;99.90
11091;DHT22;5599;52.210;21.046;2024-01-10T12:07:21;-1.20;99.90
11091;DHT22;5599;52.210;21.046;2024-01-10T12:09:51;-1.10;99.90
11091;DHT22;5599;52.210;21.046;2024-01-10T12:12:22;-1.00;80.60
11091;DHT22;5599;52.210;21.046;2024-01-10T12:14:53;-0.90;19.90
11091;DHT22;5599;52.210;21.046;2024-01-10T12:17:27;-0.90;73.70
11091;DHT22;5599;52.210;21.046;2024-01-10T12:19:56;-0.80;33.20
11091;DHT22;5599;52.210;21.046;2024-01-10T12:22:25;-0.80;15.50
11091;DHT22;5599;52.210;21.046;2024-01-10T12:24:54;-0.90;22.60
11091;DHT22;5599;52.210;21.046;2024-01-10T12:27:23;-0.80;50.20
11091;DHT22;5599;52.210;21.046;2024-01-10T12:29:56;-0.70;22.00
11091;DHT22;5599;52.210;21.046;2024-01-10T12:32:26;-0.80;83.10
11091;DHT22;5599;52.210;21.046;2024-01-10T12:35:00;-0.80;29.30
11091;DHT22;5599;52.210;21.046;2024-01-10T12:37:31;-0.70;99.90
11091;DHT22;5599;52.210;21.046;2024-01-10T12:40:01;-0.70;99.90
11091;DHT22;5599;52.210;21.046;2024-01-10T12:42:37;-0.60;99.90
11091;DHT22;5599;52.210;21.046;2024-01-10T12:45:20;-0.60;1.00
11091;DHT22;5599;52.210;21.046;2024-01-10T12:47:52;-0.70;1.00
11091;DHT22;5599;52.210;21.046;2024-01-10T12:50:22;-0.80;1.00
11091;DHT22;5599;52.210;21.046;2024-01-10T12:52:52;-0.90;1.00
11091;DHT22;5599;52.210;21.046;2024-01-10T12:55:26;-0.90;21.00
11091;DHT22;5599;52.210;21.046;2024-01-10T12:57:56;-1.00;56.00
11091;DHT22;5599;52.210;21.046;2024-01-10T13:00:35;-1.00;99.90
11091;DHT22;5599;52.210;21.046;2024-01-10T13:03:05;-1.20;99.90
11091;DHT22;5599;52.210;21.046;2024-01-10T13:05:35;-1.20;99.90
11091;DHT22;5599;52.210;21.046;2024-01-10T13:08:05;-1.20;99.90
11091;DHT22;5599;52.210;21.046;2024-01-10T13:10:36;-1.30;99.90
11091;DHT22;5599;52.210;21.046;2024-01-10T13:13:06;-1.30;99.90
11091;DHT22;5599;52.210;21.046;2024-01-10T13:15:36;-1.20;99.90
11091;DHT22;5599;52.210;21.046;2024-01-10T13:18:06;-1.10;99.90
11091;DHT22;5599;52.210;21.046;2024-01-10T13:20:37;-1.10;99.90
11091;DHT22;5599;52.210;21.046;2024-01-10T13:23:07;-1.10;99.90
11091;DHT22;5599;52.210;21.046;2024-01-10T13:25:36;-1.20;99.90
11091;DHT22;5599;52.210;21.046;2024-01-10T13:28:06;-1.20;99.90
11091;DHT22;5599;52.210;21.046;2024-01-10T13:30:36;-1.20;99.90
11091;DHT22;5599;52.210;21.046;2024-01-10T13:33:09;-1.10;99.90
11091;DHT22;5599;52.210;21.046;2024-01-10T13:35:38;-1.00;99.90
11091;DHT22;5599;52.210;21.046;2024-01-10T13:38:08;-1.00;99.90
11091;DHT22;5599;52.210;21.046;2024-01-10T13:40:37;-1.10;99.90
11091;DHT22;5599;52.210;21.046;2024-01-10T13:43:07;-1.10;99.90
11091;DHT22;5599;52.210;21.046;2024-01-10T13:45:37;-1.00;99.90
11091;DHT22;5599;52.210;21.046;2024-01-10T13:48:07;-1.10;99.90
11091;DHT22;5599;52.210;21.046;2024-01-10T13:50:38;-1.10;99.90
11091;DHT22;5599;52.210;21.046;2024-01-10T13:53:07;-1.20;99.90
11091;DHT22;5599;52.210;21.046;2024-01-10T13:55:37;-1.10;99.90
11091;DHT22;5599;52.210;21.046;2024-01-10T13:58:06;-1.20;91.10
11091;DHT22;5599;52.210;21.046;2024-01-10T14:00:37;-1.30;99.90
11091;DHT22;5599;52.210;21.046;2024-01-10T14:03:11;-1.40;99.90
11091;DHT22;5599;52.210;21.046;2024-01-10T14:05:41;-1.60;99.90
11091;DHT22;5599;52.210;21.046;2024-01-10T14:08:10;-1.70;99.90
11091;DHT22;5599;52.210;21.046;2024-01-10T14:10:40;-1.70;99.90
11091;DHT22;5599;52.210;21.046;2024-01-10T14:13:10;-1.80;99.90
11091;DHT22;5599;52.210;21.046;2024-01-10T14:15:40;-1.80;99.90
11091;DHT22;5599;52.210;21.046;2024-01-10T14:18:09;-1.90;99.90
11091;DHT22;5599;52.210;21.046;2024-01-10T14:20:39;-1.90;1.00
11091;DHT22;5599;52.210;21.046;2024-01-10T14:23:09;-2.00;1.00
11091;DHT22;5599;52.210;21.046;2024-01-10T14:25:39;-2.00;1.00
11091;DHT22;5599;52.210;21.046;2024-01-10T14:28:08;-2.10;1.00
11091;DHT22;5599;52.210;21.046;2024-01-10T14:30:38;-2.10;1.00
11091;DHT22;5599;52.210;21.046;2024-01-10T14:33:08;-2.10;1.00
11091;DHT22;5599;52.210;21.046;2024-01-10T14:35:40;-2.10;1.00
11091;DHT22;5599;52.210;21.046;2024-01-10T14:38:09;-2.10;1.00
11091;DHT22;5599;52.210;21.046;2024-01-10T14:40:39;-2.20;1.00
11091;DHT22;5599;52.210;21.046;2024-01-10T14:43:08;-2.30;1.00
11091;DHT22;5599;52.210;21.046;2024-01-10T14:45:38;-2.40;1.00
11091;DHT22;5599;52.210;21.046;2024-01-10T14:48:08;-2.40;1.00
11091;DHT22;5599;52.210;21.046;2024-01-10T14:50:38;-2.30;1.00
11091;DHT22;5599;52.210;21.046;2024-01-10T14:53:07;-2.40;1.00
11091;DHT22;5599;52.210;21.046;2024-01-10T14:55:37;-2.50;98.90
11091;DHT22;5599;52.210;21.046;2024-01-10T14:58:06;-2.50;1.00
11091;DHT22;5599;52.210;21.046;2024-01-10T15:00:36;-2.60;1.00
11091;DHT22;5599;52.210;21.046;2024-01-10T15:03:05;-2.60;1.00
11091;DHT22;5599;52.210;21.046;2024-01-10T15:05:51;-2.50;1.00
11091;DHT22;5599;52.210;21.046;2024-01-10T15:08:22;-2.50;1.00
11091;DHT22;5599;52.210;21.046;2024-01-10T15:10:52;-2.60;1.00
11091;DHT22;5599;52.210;21.046;2024-01-10T15:13:21;-2.60;1.00
11091;DHT22;5599;52.210;21.046;2024-01-10T15:15:50;-2.60;1.00
11091;DHT22;5599;52.210;21.046;2024-01-10T15:18:19;-2.70;1.00
11091;DHT22;5599;52.210;21.046;2024-01-10T15:20:48;-2.70;1.00
11091;DHT22;5599;52.210;21.046;2024-01-10T15:23:19;-2.80;1.00
11091;DHT22;5599;52.210;21.046;2024-01-10T15:25:48;-2.80;1.00
11091;DHT22;5599;52.210;21.046;2024-01-10T15:28:17;-2.80;69.20
11091;DHT22;5599;52.210;21.046;2024-01-10T15:30:46;-2.80;99.90
11091;DHT22;5599;52.210;21.046;2024-01-10T15:33:16;-2.90;99.90
11091;DHT22;5599;52.210;21.046;2024-01-10T15:35:45;-2.90;99.90
11091;DHT22;5599;52.210;21.046;2024-01-10T15:38:14;-2.80;99.90
11091;DHT22;5599;52.210;21.046;2024-01-10T15:40:45;-2.90;99.90
11091;DHT22;5599;52.210;21.046;2024-01-10T15:43:14;-2.90;1.00
11091;DHT22;5599;52.210;21.046;2024-01-10T15:45:43;-3.00;99.90
11091;DHT22;5599;52.210;21.046;2024-01-10T15:48:12;-2.90;1.00
11091;DHT22;5599;52.210;21.046;2024-01-10T15:50:42;-3.00;1.00
11091;DHT22;5599;52.210;21.046;2024-01-10T15:53:11;-3.00;1.00
11091;DHT22;5599;52.210;21.046;2024-01-10T15:55:40;-3.00;32.90
11091;DHT22;5599;52.210;21.046;2024-01-10T15:58:11;-3.00;99.90
11091;DHT22;5599;52.210;21.046;2024-01-10T16:00:44;-3.00;99.90